New Haven, Illinois
Current Conditions -  °F | °C
As of 9:15 PM on Thursday 27 Nov 2014 (Local Time) from KCUL Reporting Station
Haze Haze  
Wind Chill: 22°   Ceiling: Unl
Heat Index: 22°   Visibility: 4mi
Dew Point: 22°   Wind: 0mph
Humidity: 100%   Direction: NA
Pressure: 30.47"   Gusts: NA
Location:  37.91°N, 88.13°W
Report Text: KCUL 280315Z AUTO 00000KT 4SM BR CLR M06/M06 A3047 RMK AO2 T10581058
Loading
Personal Weather Stations






























Interactive Weather Map New forecast layout! Learn more

10-Day Weather Forecast

Advertisements
Track Severe Weather on mobile